sensor_id;sensor_type;location;lat;lon;timestamp;temperature;humidity
41953;DHT22;63613;28.200;112.870;2023-06-24T00:00:03;26.70;68.00
41953;DHT22;63613;28.200;112.870;2023-06-24T00:02:34;26.70;68.00
41953;DHT22;63613;28.200;112.870;2023-06-24T00:05:04;26.70;68.00
41953;DHT22;63613;28.200;112.870;2023-06-24T00:07:31;26.70;68.00
41953;DHT22;63613;28.200;112.870;2023-06-24T00:09:58;26.70;67.90
41953;DHT22;63613;28.200;112.870;2023-06-24T00:12:24;26.70;68.00
41953;DHT22;63613;28.200;112.870;2023-06-24T00:14:52;26.70;67.90
41953;DHT22;63613;28.200;112.870;2023-06-24T00:17:19;26.70;67.80
41953;DHT22;63613;28.200;112.870;2023-06-24T00:19:46;26.70;67.80
41953;DHT22;63613;28.200;112.870;2023-06-24T00:22:13;26.70;67.80
41953;DHT22;63613;28.200;112.870;2023-06-24T00:24:43;26.70;67.90
41953;DHT22;63613;28.200;112.870;2023-06-24T00:27:09;26.70;67.80
41953;DHT22;63613;28.200;112.870;2023-06-24T00:29:37;26.70;67.70
41953;DHT22;63613;28.200;112.870;2023-06-24T00:32:04;26.70;67.60
41953;DHT22;63613;28.200;112.870;2023-06-24T00:34:33;26.80;67.60
41953;DHT22;63613;28.200;112.870;2023-06-24T00:37:00;26.70;67.60
41953;DHT22;63613;28.200;112.870;2023-06-24T00:39:32;26.80;67.60
41953;DHT22;63613;28.200;112.870;2023-06-24T00:42:20;26.80;67.60
41953;DHT22;63613;28.200;112.870;2023-06-24T00:44:48;26.80;67.60
41953;DHT22;63613;28.200;112.870;2023-06-24T00:47:15;26.80;67.50
41953;DHT22;63613;28.200;112.870;2023-06-24T00:49:42;26.80;67.50
41953;DHT22;63613;28.200;112.870;2023-06-24T00:52:12;26.80;67.50
41953;DHT22;63613;28.200;112.870;2023-06-24T00:54:43;26.80;67.50
41953;DHT22;63613;28.200;112.870;2023-06-24T00:57:10;26.80;67.50
41953;DHT22;63613;28.200;112.870;2023-06-24T00:59:39;26.80;67.50
41953;DHT22;63613;28.200;112.870;2023-06-24T01:04:58;26.80;67.50
41953;DHT22;63613;28.200;112.870;2023-06-24T01:07:25;26.80;67.50
41953;DHT22;63613;28.200;112.870;2023-06-24T01:09:52;26.80;67.50
41953;DHT22;63613;28.200;112.870;2023-06-24T01:12:22;26.80;67.50
41953;DHT22;63613;28.200;112.870;2023-06-24T01:14:49;26.80;67.40
41953;DHT22;63613;28.200;112.870;2023-06-24T01:17:23;26.90;67.30
41953;DHT22;63613;28.200;112.870;2023-06-24T01:34:01;26.90;67.00
41953;DHT22;63613;28.200;112.870;2023-06-24T01:36:33;27.00;67.00
41953;DHT22;63613;28.200;112.870;2023-06-24T01:39:12;27.00;66.90
41953;DHT22;63613;28.200;112.870;2023-06-24T01:41:47;27.00;66.80
41953;DHT22;63613;28.200;112.870;2023-06-24T01:44:17;27.00;66.90
41953;DHT22;63613;28.200;112.870;2023-06-24T01:46:46;26.90;67.00
41953;DHT22;63613;28.200;112.870;2023-06-24T01:49:16;27.00;66.90
41953;DHT22;63613;28.200;112.870;2023-06-24T01:51:47;27.10;66.80
41953;DHT22;63613;28.200;112.870;2023-06-24T01:54:16;27.10;66.70
41953;DHT22;63613;28.200;112.870;2023-06-24T01:56:46;27.10;66.70
41953;DHT22;63613;28.200;112.870;2023-06-24T01:59:16;27.20;66.70
41953;DHT22;63613;28.200;112.870;2023-06-24T02:01:44;27.20;66.60
41953;DHT22;63613;28.200;112.870;2023-06-24T02:04:12;27.20;66.60
41953;DHT22;63613;28.200;112.870;2023-06-24T02:06:41;27.20;66.60
41953;DHT22;63613;28.200;112.870;2023-06-24T02:09:10;27.20;66.60
41953;DHT22;63613;28.200;112.870;2023-06-24T02:11:38;27.20;66.50
41953;DHT22;63613;28.200;112.870;2023-06-24T02:14:08;27.20;66.40
41953;DHT22;63613;28.200;112.870;2023-06-24T02:16:39;27.20;66.40
41953;DHT22;63613;28.200;112.870;2023-06-24T02:19:09;27.30;66.40
41953;DHT22;63613;28.200;112.870;2023-06-24T02:21:39;27.20;66.40
41953;DHT22;63613;28.200;112.870;2023-06-24T02:24:27;27.30;66.40
41953;DHT22;63613;28.200;112.870;2023-06-24T02:26:57;27.30;66.40
41953;DHT22;63613;28.200;112.870;2023-06-24T02:29:26;27.30;66.30
41953;DHT22;63613;28.200;112.870;2023-06-24T02:31:54;27.40;66.30
41953;DHT22;63613;28.200;112.870;2023-06-24T02:34:23;27.30;66.10
41953;DHT22;63613;28.200;112.870;2023-06-24T02:36:50;27.40;66.10
41953;DHT22;63613;28.200;112.870;2023-06-24T02:39:17;27.40;66.10
41953;DHT22;63613;28.200;112.870;2023-06-24T02:41:45;27.40;66.10
41953;DHT22;63613;28.200;112.870;2023-06-24T02:44:14;27.30;66.00
41953;DHT22;63613;28.200;112.870;2023-06-24T02:46:42;27.30;65.90
41953;DHT22;63613;28.200;112.870;2023-06-24T02:49:12;27.40;65.80
41953;DHT22;63613;28.200;112.870;2023-06-24T02:51:41;27.40;65.80
41953;DHT22;63613;28.200;112.870;2023-06-24T02:54:10;27.40;65.60
41953;DHT22;63613;28.200;112.870;2023-06-24T02:56:38;27.40;65.50
41953;DHT22;63613;28.200;112.870;2023-06-24T02:59:08;27.50;65.40
41953;DHT22;63613;28.200;112.870;2023-06-24T03:01:36;27.40;65.40
41953;DHT22;63613;28.200;112.870;2023-06-24T03:04:12;27.50;65.40
41953;DHT22;63613;28.200;112.870;2023-06-24T03:06:41;27.50;65.30
41953;DHT22;63613;28.200;112.870;2023-06-24T03:09:08;27.50;65.20
41953;DHT22;63613;28.200;112.870;2023-06-24T03:11:44;27.50;65.20
41953;DHT22;63613;28.200;112.870;2023-06-24T03:14:12;27.50;65.10
41953;DHT22;63613;28.200;112.870;2023-06-24T03:16:39;27.50;65.10
41953;DHT22;63613;28.200;112.870;2023-06-24T03:19:06;27.50;65.20
41953;DHT22;63613;28.200;112.870;2023-06-24T03:21:33;27.40;65.20
41953;DHT22;63613;28.200;112.870;2023-06-24T03:24:01;27.50;65.10
41953;DHT22;63613;28.200;112.870;2023-06-24T03:26:34;27.50;65.10
41953;DHT22;63613;28.200;112.870;2023-06-24T03:29:01;27.50;65.10
41953;DHT22;63613;28.200;112.870;2023-06-24T03:31:28;27.50;65.10
41953;DHT22;63613;28.200;112.870;2023-06-24T03:33:55;27.50;65.10
41953;DHT22;63613;28.200;112.870;2023-06-24T03:36:22;27.50;65.10
41953;DHT22;63613;28.200;112.870;2023-06-24T03:38:55;27.50;65.00
41953;DHT22;63613;28.200;112.870;2023-06-24T03:41:23;27.50;65.00
41953;DHT22;63613;28.200;112.870;2023-06-24T03:43:51;27.50;65.00
41953;DHT22;63613;28.200;112.870;2023-06-24T03:46:19;27.50;65.10
41953;DHT22;63613;28.200;112.870;2023-06-24T03:49:10;27.50;65.10
41953;DHT22;63613;28.200;112.870;2023-06-24T03:51:36;27.50;65.00
41953;DHT22;63613;28.200;112.870;2023-06-24T03:54:03;27.50;65.00
41953;DHT22;63613;28.200;112.870;2023-06-24T03:56:31;27.40;65.00
41953;DHT22;63613;28.200;112.870;2023-06-24T03:58:58;27.40;65.00
41953;DHT22;63613;28.200;112.870;2023-06-24T04:01:25;27.40;65.00
41953;DHT22;63613;28.200;112.870;2023-06-24T04:03:52;27.50;65.00
41953;DHT22;63613;28.200;112.870;2023-06-24T04:06:18;27.40;65.00
41953;DHT22;63613;28.200;112.870;2023-06-24T04:09:07;27.40;65.10
41953;DHT22;63613;28.200;112.870;2023-06-24T04:11:36;27.30;65.00
41953;DHT22;63613;28.200;112.870;2023-06-24T04:14:04;27.30;65.10
41953;DHT22;63613;28.200;112.870;2023-06-24T04:16:33;27.30;65.00
41953;DHT22;63613;28.200;112.870;2023-06-24T04:19:00;27.40;65.00
41953;DHT22;63613;28.200;112.870;2023-06-24T04:21:27;27.40;64.90
41953;DHT22;63613;28.200;112.870;2023-06-24T04:23:53;27.40;64.90
41953;DHT22;63613;28.200;112.870;2023-06-24T04:26:20;27.30;64.90
41953;DHT22;63613;28.200;112.870;2023-06-24T04:28:47;27.30;64.90
41953;DHT22;63613;28.200;112.870;2023-06-24T04:31:14;27.40;64.90
41953;DHT22;63613;28.200;112.870;2023-06-24T04:33:45;27.40;64.90
41953;DHT22;63613;28.200;112.870;2023-06-24T04:36:13;27.40;64.90
41953;DHT22;63613;28.200;112.870;2023-06-24T04:38:39;27.30;65.00
41953;DHT22;63613;28.200;112.870;2023-06-24T04:41:06;27.30;64.90
41953;DHT22;63613;28.200;112.870;2023-06-24T04:43:33;27.30;64.90
41953;DHT22;63613;28.200;112.870;2023-06-24T04:46:02;27.30;64.90
41953;DHT22;63613;28.200;112.870;2023-06-24T04:48:29;27.30;64.90
41953;DHT22;63613;28.200;112.870;2023-06-24T04:50:55;27.30;64.90
41953;DHT22;63613;28.200;112.870;2023-06-24T04:53:25;27.30;64.90
41953;DHT22;63613;28.200;112.870;2023-06-24T04:55:53;27.30;65.00
41953;DHT22;63613;28.200;112.870;2023-06-24T04:58:22;27.30;64.90
41953;DHT22;63613;28.200;112.870;2023-06-24T05:00:52;27.30;64.90
41953;DHT22;63613;28.200;112.870;2023-06-24T05:03:40;27.20;64.90
41953;DHT22;63613;28.200;112.870;2023-06-24T05:06:06;27.30;64.80
41953;DHT22;63613;28.200;112.870;2023-06-24T05:08:33;27.30;64.80
41953;DHT22;63613;28.200;112.870;2023-06-24T05:11:00;27.30;64.90
41953;DHT22;63613;28.200;112.870;2023-06-24T05:13:27;27.30;64.90
41953;DHT22;63613;28.200;112.870;2023-06-24T05:15:54;27.30;64.90
41953;DHT22;63613;28.200;112.870;2023-06-24T05:18:21;27.30;64.90
41953;DHT22;63613;28.200;112.870;2023-06-24T05:20:48;27.30;64.90
41953;DHT22;63613;28.200;112.870;2023-06-24T05:23:18;27.30;64.90
41953;DHT22;63613;28.200;112.870;2023-06-24T05:25:46;27.30;64.90
41953;DHT22;63613;28.200;112.870;2023-06-24T05:28:12;27.30;64.90
41953;DHT22;63613;28.200;112.870;2023-06-24T05:30:40;27.30;64.90
41953;DHT22;63613;28.200;112.870;2023-06-24T05:33:07;27.30;64.90
41953;DHT22;63613;28.200;112.870;2023-06-24T05:35:37;27.30;64.90
41953;DHT22;63613;28.200;112.870;2023-06-24T05:38:22;27.30;64.90
41953;DHT22;63613;28.200;112.870;2023-06-24T05:40:49;27.30;65.00
41953;DHT22;63613;28.200;112.870;2023-06-24T05:43:16;27.30;65.00
41953;DHT22;63613;28.200;112.870;2023-06-24T05:45:43;27.30;65.00
41953;DHT22;63613;28.200;112.870;2023-06-24T05:48:30;27.30;64.90
41953;DHT22;63613;28.200;112.870;2023-06-24T05:50:56;27.30;64.90
41953;DHT22;63613;28.200;112.870;2023-06-24T05:53:23;27.30;64.90
41953;DHT22;63613;28.200;112.870;2023-06-24T05:55:51;27.30;64.90
41953;DHT22;63613;28.200;112.870;2023-06-24T05:58:17;27.30;64.90
41953;DHT22;63613;28.200;112.870;2023-06-24T06:00:44;27.30;64.80
41953;DHT22;63613;28.200;112.870;2023-06-24T06:03:11;27.40;64.80
41953;DHT22;63613;28.200;112.870;2023-06-24T06:05:42;27.40;64.80
41953;DHT22;63613;28.200;112.870;2023-06-24T06:08:09;27.40;64.70
41953;DHT22;63613;28.200;112.870;2023-06-24T06:10:57;27.30;64.80
41953;DHT22;63613;28.200;112.870;2023-06-24T06:13:27;27.30;65.00
41953;DHT22;63613;28.200;112.870;2023-06-24T06:15:55;27.30;65.10
41953;DHT22;63613;28.200;112.870;2023-06-24T06:18:22;27.30;65.10
41953;DHT22;63613;28.200;112.870;2023-06-24T06:20:49;27.30;65.10
41953;DHT22;63613;28.200;112.870;2023-06-24T06:23:18;27.30;65.10
41953;DHT22;63613;28.200;112.870;2023-06-24T06:25:51;27.20;65.20
41953;DHT22;63613;28.200;112.870;2023-06-24T06:28:17;27.30;65.10
41953;DHT22;63613;28.200;112.870;2023-06-24T06:30:44;27.30;65.20
41953;DHT22;63613;28.200;112.870;2023-06-24T06:33:12;27.20;65.20
41953;DHT22;63613;28.200;112.870;2023-06-24T06:35:41;27.20;65.20
41953;DHT22;63613;28.200;112.870;2023-06-24T06:38:08;27.20;65.20
41953;DHT22;63613;28.200;112.870;2023-06-24T06:40:34;27.20;65.20
41953;DHT22;63613;28.200;112.870;2023-06-24T06:43:03;27.20;65.30
41953;DHT22;63613;28.200;112.870;2023-06-24T06:45:29;27.20;65.30
41953;DHT22;63613;28.200;112.870;2023-06-24T06:47:56;27.20;65.30
41953;DHT22;63613;28.200;112.870;2023-06-24T06:50:23;27.20;65.30
41953;DHT22;63613;28.200;112.870;2023-06-24T06:52:52;27.20;65.30
41953;DHT22;63613;28.200;112.870;2023-06-24T06:55:19;27.20;65.30
41953;DHT22;63613;28.200;112.870;2023-06-24T06:57:47;27.20;65.30
41953;DHT22;63613;28.200;112.870;2023-06-24T07:00:14;27.20;65.30
41953;DHT22;63613;28.200;112.870;2023-06-24T07:02:44;27.20;65.30
41953;DHT22;63613;28.200;112.870;2023-06-24T07:05:11;27.20;65.40
41953;DHT22;63613;28.200;112.870;2023-06-24T07:07:38;27.20;65.40
41953;DHT22;63613;28.200;112.870;2023-06-24T07:10:11;27.20;65.40
41953;DHT22;63613;28.200;112.870;2023-06-24T07:12:41;27.20;65.40
41953;DHT22;63613;28.200;112.870;2023-06-24T07:15:09;27.20;65.50
41953;DHT22;63613;28.200;112.870;2023-06-24T07:17:36;27.20;65.50
41953;DHT22;63613;28.200;112.870;2023-06-24T07:20:03;27.20;65.50
41953;DHT22;63613;28.200;112.870;2023-06-24T07:22:31;27.20;65.50
41953;DHT22;63613;28.200;112.870;2023-06-24T07:24:58;27.20;65.50
41953;DHT22;63613;28.200;112.870;2023-06-24T07:27:28;27.20;65.50
41953;DHT22;63613;28.200;112.870;2023-06-24T07:29:55;27.20;65.50
41953;DHT22;63613;28.200;112.870;2023-06-24T07:32:23;27.20;65.50
41953;DHT22;63613;28.200;112.870;2023-06-24T07:34:50;27.20;65.50
41953;DHT22;63613;28.200;112.870;2023-06-24T07:37:16;27.20;65.50
41953;DHT22;63613;28.200;112.870;2023-06-24T07:39:43;27.20;65.50
41953;DHT22;63613;28.200;112.870;2023-06-24T07:42:10;27.20;65.60
41953;DHT22;63613;28.200;112.870;2023-06-24T07:44:38;27.20;65.60
41953;DHT22;63613;28.200;112.870;2023-06-24T07:47:06;27.10;65.60
41953;DHT22;63613;28.200;112.870;2023-06-24T07:49:33;27.10;65.50
41953;DHT22;63613;28.200;112.870;2023-06-24T07:52:01;27.10;65.60
41953;DHT22;63613;28.200;112.870;2023-06-24T07:54:28;27.10;65.60
41953;DHT22;63613;28.200;112.870;2023-06-24T07:56:55;27.20;65.70
41953;DHT22;63613;28.200;112.870;2023-06-24T07:59:24;27.10;65.60
41953;DHT22;63613;28.200;112.870;2023-06-24T08:01:54;27.10;65.70
41953;DHT22;63613;28.200;112.870;2023-06-24T08:04:22;27.10;65.70
41953;DHT22;63613;28.200;112.870;2023-06-24T08:06:49;27.00;65.80
41953;DHT22;63613;28.200;112.870;2023-06-24T08:09:17;27.10;65.80
41953;DHT22;63613;28.200;112.870;2023-06-24T08:11:44;27.10;65.70
41953;DHT22;63613;28.200;112.870;2023-06-24T08:14:11;27.10;65.70
41953;DHT22;63613;28.200;112.870;2023-06-24T08:16:38;27.10;65.70
41953;DHT22;63613;28.200;112.870;2023-06-24T08:19:08;27.10;65.80
41953;DHT22;63613;28.200;112.870;2023-06-24T08:21:35;27.10;65.90
41953;DHT22;63613;28.200;112.870;2023-06-24T08:24:04;27.00;65.80
41953;DHT22;63613;28.200;112.870;2023-06-24T08:26:31;27.10;65.90
41953;DHT22;63613;28.200;112.870;2023-06-24T08:29:01;27.10;65.90
41953;DHT22;63613;28.200;112.870;2023-06-24T08:31:28;27.10;65.90
41953;DHT22;63613;28.200;112.870;2023-06-24T08:33:59;27.10;65.90
41953;DHT22;63613;28.200;112.870;2023-06-24T08:36:29;27.00;65.90
41953;DHT22;63613;28.200;112.870;2023-06-24T08:38:56;27.10;66.00
41953;DHT22;63613;28.200;112.870;2023-06-24T08:41:23;27.00;66.00
41953;DHT22;63613;28.200;112.870;2023-06-24T08:43:57;27.00;66.00
41953;DHT22;63613;28.200;112.870;2023-06-24T08:46:25;27.00;66.00
41953;DHT22;63613;28.200;112.870;2023-06-24T08:49:28;27.10;66.00
41953;DHT22;63613;28.200;112.870;2023-06-24T08:52:13;27.00;66.00
41953;DHT22;63613;28.200;112.870;2023-06-24T08:54:45;27.00;66.00
41953;DHT22;63613;28.200;112.870;2023-06-24T08:57:12;27.00;66.00
41953;DHT22;63613;28.200;112.870;2023-06-24T08:59:43;26.90;66.10
41953;DHT22;63613;28.200;112.870;2023-06-24T09:02:11;26.90;66.20
41953;DHT22;63613;28.200;112.870;2023-06-24T09:04:41;26.90;66.20
41953;DHT22;63613;28.200;112.870;2023-06-24T09:07:08;26.90;66.10
41953;DHT22;63613;28.200;112.870;2023-06-24T09:09:55;27.00;66.20
41953;DHT22;63613;28.200;112.870;2023-06-24T09:12:25;27.00;66.10
41953;DHT22;63613;28.200;112.870;2023-06-24T09:14:53;26.90;66.20
41953;DHT22;63613;28.200;112.870;2023-06-24T09:17:20;26.90;66.20
41953;DHT22;63613;28.200;112.870;2023-06-24T09:19:51;26.90;66.20
41953;DHT22;63613;28.200;112.870;2023-06-24T09:22:19;26.90;66.20
41953;DHT22;63613;28.200;112.870;2023-06-24T09:24:48;26.90;66.20
41953;DHT22;63613;28.200;112.870;2023-06-24T09:27:17;26.90;66.20
41953;DHT22;63613;28.200;112.870;2023-06-24T09:29:46;26.90;66.30
41953;DHT22;63613;28.200;112.870;2023-06-24T09:32:13;26.90;66.30
41953;DHT22;63613;28.200;112.870;2023-06-24T09:34:41;26.80;66.40
41953;DHT22;63613;28.200;112.870;2023-06-24T09:37:10;26.80;66.40
41953;DHT22;63613;28.200;112.870;2023-06-24T09:39:40;26.80;66.40
41953;DHT22;63613;28.200;112.870;2023-06-24T09:42:08;26.80;66.40
41953;DHT22;63613;28.200;112.870;2023-06-24T09:44:37;26.80;66.40
41953;DHT22;63613;28.200;112.870;2023-06-24T09:47:04;26.80;66.40
41953;DHT22;63613;28.200;112.870;2023-06-24T09:49:35;26.80;66.50
41953;DHT22;63613;28.200;112.870;2023-06-24T09:52:02;26.80;66.50
41953;DHT22;63613;28.200;112.870;2023-06-24T09:54:32;26.80;66.50
41953;DHT22;63613;28.200;112.870;2023-06-24T09:57:03;26.80;66.60
41953;DHT22;63613;28.200;112.870;2023-06-24T09:59:32;26.70;66.60
41953;DHT22;63613;28.200;112.870;2023-06-24T10:02:20;26.70;66.60
41953;DHT22;63613;28.200;112.870;2023-06-24T10:04:49;26.70;66.60
41953;DHT22;63613;28.200;112.870;2023-06-24T10:07:37;26.70;66.60
41953;DHT22;63613;28.200;112.870;2023-06-24T10:10:06;26.70;66.60
41953;DHT22;63613;28.200;112.870;2023-06-24T10:12:36;26.70;66.60
41953;DHT22;63613;28.200;112.870;2023-06-24T10:15:04;26.70;66.70
41953;DHT22;63613;28.200;112.870;2023-06-24T10:17:32;26.70;66.60
41953;DHT22;63613;28.200;112.870;2023-06-24T10:20:04;26.70;66.70
41953;DHT22;63613;28.200;112.870;2023-06-24T10:22:32;26.70;66.70
41953;DHT22;63613;28.200;112.870;2023-06-24T10:25:01;26.70;66.70
41953;DHT22;63613;28.200;112.870;2023-06-24T10:27:28;26.70;66.80
41953;DHT22;63613;28.200;112.870;2023-06-24T10:30:03;26.70;66.90
41953;DHT22;63613;28.200;112.870;2023-06-24T10:32:40;26.70;66.80
41953;DHT22;63613;28.200;112.870;2023-06-24T10:35:24;26.70;66.80
41953;DHT22;63613;28.200;112.870;2023-06-24T10:37:56;26.70;66.80
41953;DHT22;63613;28.200;112.870;2023-06-24T10:40:41;26.70;66.80
41953;DHT22;63613;28.200;112.870;2023-06-24T10:43:28;26.70;66.90
41953;DHT22;63613;28.200;112.870;2023-06-24T10:45:58;26.60;66.90
41953;DHT22;63613;28.200;112.870;2023-06-24T10:48:26;26.60;66.90
41953;DHT22;63613;28.200;112.870;2023-06-24T10:50:53;26.70;66.90
41953;DHT22;63613;28.200;112.870;2023-06-24T10:53:21;26.70;66.90
41953;DHT22;63613;28.200;112.870;2023-06-24T10:55:49;26.60;66.90
41953;DHT22;63613;28.200;112.870;2023-06-24T10:58:35;26.60;66.90
41953;DHT22;63613;28.200;112.870;2023-06-24T11:01:11;26.60;67.00
41953;DHT22;63613;28.200;112.870;2023-06-24T11:03:41;26.60;67.00
41953;DHT22;63613;28.200;112.870;2023-06-24T11:06:11;26.60;67.00
41953;DHT22;63613;28.200;112.870;2023-06-24T11:08:44;26.60;67.10
41953;DHT22;63613;28.200;112.870;2023-06-24T11:11:19;26.60;67.10
41953;DHT22;63613;28.200;112.870;2023-06-24T11:13:48;26.60;67.10
41953;DHT22;63613;28.200;112.870;2023-06-24T11:16:21;26.60;67.00
41953;DHT22;63613;28.200;112.870;2023-06-24T11:18:50;26.60;67.00
41953;DHT22;63613;28.200;112.870;2023-06-24T11:21:17;26.60;67.00
41953;DHT22;63613;28.200;112.870;2023-06-24T11:23:44;26.60;67.00
41953;DHT22;63613;28.200;112.870;2023-06-24T11:26:11;26.60;67.00
41953;DHT22;63613;28.200;112.870;2023-06-24T11:28:38;26.60;67.10
41953;DHT22;63613;28.200;112.870;2023-06-24T11:31:07;26.50;67.10
41953;DHT22;63613;28.200;112.870;2023-06-24T11:33:36;26.60;67.10
41953;DHT22;63613;28.200;112.870;2023-06-24T11:36:09;26.60;67.10
41953;DHT22;63613;28.200;112.870;2023-06-24T11:38:37;26.60;67.00
41953;DHT22;63613;28.200;112.870;2023-06-24T11:41:04;26.50;67.10
41953;DHT22;63613;28.200;112.870;2023-06-24T11:43:32;26.50;67.10
41953;DHT22;63613;28.200;112.870;2023-06-24T11:46:29;26.60;67.10
41953;DHT22;63613;28.200;112.870;2023-06-24T11:49:07;26.50;67.10
41953;DHT22;63613;28.200;112.870;2023-06-24T11:51:35;26.50;67.10
41953;DHT22;63613;28.200;112.870;2023-06-24T11:54:08;26.50;67.20
41953;DHT22;63613;28.200;112.870;2023-06-24T11:56:43;26.50;67.20
41953;DHT22;63613;28.200;112.870;2023-06-24T11:59:37;26.50;67.20
41953;DHT22;63613;28.200;112.870;2023-06-24T12:02:04;26.50;67.30
41953;DHT22;63613;28.200;112.870;2023-06-24T12:04:32;26.50;67.30
41953;DHT22;63613;28.200;112.870;2023-06-24T12:07:03;26.50;67.30
41953;DHT22;63613;28.200;112.870;2023-06-24T12:09:30;26.50;67.30
41953;DHT22;63613;28.200;112.870;2023-06-24T12:11:57;26.50;67.40
41953;DHT22;63613;28.200;112.870;2023-06-24T12:14:23;26.50;67.60
41953;DHT22;63613;28.200;112.870;2023-06-24T12:16:51;26.50;67.50
41953;DHT22;63613;28.200;112.870;2023-06-24T12:19:18;26.50;67.50
41953;DHT22;63613;28.200;112.870;2023-06-24T12:21:47;26.50;67.50
41953;DHT22;63613;28.200;112.870;2023-06-24T12:24:16;26.50;67.50
41953;DHT22;63613;28.200;112.870;2023-06-24T12:26:43;26.50;67.50
41953;DHT22;63613;28.200;112.870;2023-06-24T12:29:13;26.50;67.50
41953;DHT22;63613;28.200;112.870;2023-06-24T12:31:41;26.50;67.60
41953;DHT22;63613;28.200;112.870;2023-06-24T12:34:08;26.40;67.60
41953;DHT22;63613;28.200;112.870;2023-06-24T12:36:35;26.50;67.60
41953;DHT22;63613;28.200;112.870;2023-06-24T12:39:02;26.40;67.60
41953;DHT22;63613;28.200;112.870;2023-06-24T12:41:28;26.40;67.60
41953;DHT22;63613;28.200;112.870;2023-06-24T12:43:55;26.40;67.60
41953;DHT22;63613;28.200;112.870;2023-06-24T12:46:24;26.40;67.60
41953;DHT22;63613;28.200;112.870;2023-06-24T12:48:51;26.40;67.60
41953;DHT22;63613;28.200;112.870;2023-06-24T12:51:17;26.40;67.60
41953;DHT22;63613;28.200;112.870;2023-06-24T12:53:44;26.40;67.60
41953;DHT22;63613;28.200;112.870;2023-06-24T12:56:12;26.40;67.70
41953;DHT22;63613;28.200;112.870;2023-06-24T12:58:39;26.40;67.70
41953;DHT22;63613;28.200;112.870;2023-06-24T13:01:07;26.40;67.70
41953;DHT22;63613;28.200;112.870;2023-06-24T13:03:34;26.40;67.70
41953;DHT22;63613;28.200;112.870;2023-06-24T13:06:02;26.40;67.70
41953;DHT22;63613;28.200;112.870;2023-06-24T13:08:29;26.40;67.70
41953;DHT22;63613;28.200;112.870;2023-06-24T13:11:16;26.40;67.70
41953;DHT22;63613;28.200;112.870;2023-06-24T13:13:44;26.40;67.70
41953;DHT22;63613;28.200;112.870;2023-06-24T13:16:10;26.40;67.80
41953;DHT22;63613;28.200;112.870;2023-06-24T13:18:37;26.30;67.80
41953;DHT22;63613;28.200;112.870;2023-06-24T13:21:04;26.40;67.70
41953;DHT22;63613;28.200;112.870;2023-06-24T13:23:33;26.30;67.80
41953;DHT22;63613;28.200;112.870;2023-06-24T13:26:00;26.30;67.80
41953;DHT22;63613;28.200;112.870;2023-06-24T13:28:27;26.40;67.80
41953;DHT22;63613;28.200;112.870;2023-06-24T13:30:58;26.30;67.80
41953;DHT22;63613;28.200;112.870;2023-06-24T13:33:26;26.30;67.90
41953;DHT22;63613;28.200;112.870;2023-06-24T13:35:55;26.30;67.80
41953;DHT22;63613;28.200;112.870;2023-06-24T13:38:23;26.30;67.80
41953;DHT22;63613;28.200;112.870;2023-06-24T13:40:50;26.40;67.70
41953;DHT22;63613;28.200;112.870;2023-06-24T13:43:40;26.30;67.70
41953;DHT22;63613;28.200;112.870;2023-06-24T13:46:07;26.30;67.70
41953;DHT22;63613;28.200;112.870;2023-06-24T13:48:34;26.40;67.60
41953;DHT22;63613;28.200;112.870;2023-06-24T13:51:02;26.40;67.60
41953;DHT22;63613;28.200;112.870;2023-06-24T13:53:33;26.40;67.70
41953;DHT22;63613;28.200;112.870;2023-06-24T13:56:20;26.30;67.70
41953;DHT22;63613;28.200;112.870;2023-06-24T13:58:49;26.30;67.60
41953;DHT22;63613;28.200;112.870;2023-06-24T14:01:17;26.30;67.70
41953;DHT22;63613;28.200;112.870;2023-06-24T14:03:45;26.40;67.70
41953;DHT22;63613;28.200;112.870;2023-06-24T14:06:18;26.40;67.80
41953;DHT22;63613;28.200;112.870;2023-06-24T14:08:46;26.40;67.90
41953;DHT22;63613;28.200;112.870;2023-06-24T14:11:14;26.30;67.90
41953;DHT22;63613;28.200;112.870;2023-06-24T14:13:43;26.30;68.00
41953;DHT22;63613;28.200;112.870;2023-06-24T14:16:13;26.30;68.00
41953;DHT22;63613;28.200;112.870;2023-06-24T14:18:40;26.30;68.00
41953;DHT22;63613;28.200;112.870;2023-06-24T14:21:10;26.30;68.00
41953;DHT22;63613;28.200;112.870;2023-06-24T14:23:37;26.30;68.00
41953;DHT22;63613;28.200;112.870;2023-06-24T14:26:06;26.30;68.00
41953;DHT22;63613;28.200;112.870;2023-06-24T14:28:33;26.30;68.00
41953;DHT22;63613;28.200;112.870;2023-06-24T14:31:01;26.30;68.10
41953;DHT22;63613;28.200;112.870;2023-06-24T14:33:29;26.30;68.00
41953;DHT22;63613;28.200;112.870;2023-06-24T14:36:16;26.30;68.00
41953;DHT22;63613;28.200;112.870;2023-06-24T14:38:44;26.30;68.10
41953;DHT22;63613;28.200;112.870;2023-06-24T14:41:11;26.30;68.10
41953;DHT22;63613;28.200;112.870;2023-06-24T14:43:39;26.30;68.00
41953;DHT22;63613;28.200;112.870;2023-06-24T14:46:08;26.30;68.00
41953;DHT22;63613;28.200;112.870;2023-06-24T14:48:39;26.30;68.00
41953;DHT22;63613;28.200;112.870;2023-06-24T14:51:06;26.30;68.00
41953;DHT22;63613;28.200;112.870;2023-06-24T14:53:34;26.30;68.00
41953;DHT22;63613;28.200;112.870;2023-06-24T14:56:05;26.30;68.10
41953;DHT22;63613;28.200;112.870;2023-06-24T14:58:32;26.30;68.20
41953;DHT22;63613;28.200;112.870;2023-06-24T15:00:59;26.20;68.10
41953;DHT22;63613;28.200;112.870;2023-06-24T15:03:45;26.30;68.20
41953;DHT22;63613;28.200;112.870;2023-06-24T15:06:15;26.20;68.20
41953;DHT22;63613;28.200;112.870;2023-06-24T15:08:46;26.20;68.10
41953;DHT22;63613;28.200;112.870;2023-06-24T15:11:13;26.20;68.10
41953;DHT22;63613;28.200;112.870;2023-06-24T15:13:41;26.20;68.10
41953;DHT22;63613;28.200;112.870;2023-06-24T15:16:08;26.20;68.00
41953;DHT22;63613;28.200;112.870;2023-06-24T15:18:46;26.20;68.00
41953;DHT22;63613;28.200;112.870;2023-06-24T15:21:14;26.20;68.10
41953;DHT22;63613;28.200;112.870;2023-06-24T15:23:43;26.20;68.10
41953;DHT22;63613;28.200;112.870;2023-06-24T15:26:11;26.20;68.20
41953;DHT22;63613;28.200;112.870;2023-06-24T15:28:38;26.20;68.50
41953;DHT22;63613;28.200;112.870;2023-06-24T15:31:14;26.20;68.60
41953;DHT22;63613;28.200;112.870;2023-06-24T15:33:41;26.20;68.70